Douglas Lake, Canada
Current Conditions -  °F | °C
As of 11:02 PM on Wednesday 22 Oct 2014 (Local Time) from CYLW Reporting Station
Overcast Overcast  
Wind Chill: 48°   Ceiling: 5000
Heat Index: 48°   Visibility: 9mi
Dew Point: 48°   Wind: 3mph
Humidity: 100%   Direction: 310°NW
Pressure: 29.56"   Gusts: NA
Location:  50.15°N, 120.18°W
Report Text: CYLW 230602Z AUTO 31003KT 240V360 9SM SCT007 OVC050 09/09 A2956 RMK SLP013
Loading
Personal Weather Stations






























Interactive Weather Map
Tropical Storm Tracking
New forecast layout! Learn more

10-Day Weather Forecast

Advertisements
Track Severe Weather on mobile